• Join FlightAware (Why Join?)
  • Login
  • US Flag 
04:36AM EDT


 

Airport Tracker/Info


-or-


 

Live Flight TrackerFlight Track Log ✈ N152CF ✈ 09-May-2013 ✈ KGTR - KCHA

Flight Track Log - Related Links

Times and Time Zones

All times are in EDT time to prevent confusion due to time zone crossing. See the N152CF flight status page for this flight to view local times or setup timezone preferences in your user account.

Time Position Orientation Groundspeed Altitude Reporting Facility
EDT Latitude Longitude Course Direction KTS MPH feet Rate Location/Type
04:51PM 33.4522 -88.5669 80° East 87 100 2,100  Level Memphis Center
04:52PM 33.4625 -88.5494 55° Northeast 91 105 2,600 600 Climbing Memphis Center
04:53PM 33.4619 -88.5194 91° East 88 101 3,200 720 Climbing Memphis Center
04:53PM 33.4619 -88.5122 90° East 133 153 3,700 780 Climbing Memphis Center
04:54PM 33.4575 -88.4947 107° East 84 97 4,000 780 Climbing Memphis Center
04:54PM 33.4550 -88.4825 104° East 110 127 4,500 780 Climbing Memphis Center
04:55PM 33.4508 -88.4650 106° East 86 99 4,800 780 Climbing Memphis Center
04:55PM 33.4506 -88.4550 92° East 92 106 5,300 720 Climbing Memphis Center
04:56PM 33.4458 -88.4228 100° East 92 106 5,900 600 Climbing Memphis Center
04:57PM 33.4478 -88.4028 83° East 98 113 6,300 660 Climbing Memphis Center
04:58PM 33.4492 -88.3656 87° East 103 119 7,000 300 Climbing Memphis Center
04:59PM 33.4464 -88.3206 94° East 138 159 7,000  Level Memphis Center
05:00PM 33.4622 -88.2756 67° East 151 174 7,000  Level Memphis Center
05:01PM 33.4886 -88.2275 57° Northeast 150 173 7,100  Climbing Memphis Center
05:02PM 33.5131 -88.1922 50° Northeast 151 174 7,100 -60 Level Memphis Center
05:03PM 33.5394 -88.1517 52° Northeast 153 176 7,000 -60 Descending Memphis Center
05:04PM 33.5617 -88.1111 57° Northeast 151 174 7,000  Level Memphis Center
05:05PM 33.5858 -88.0656 58° Northeast 152 175 7,000  Level Memphis Center
05:07PM 33.6181 -88.0047 58° Northeast 152 175 7,000  Level Memphis Center
05:08PM 33.6383 -87.9619 60° Northeast 151 174 7,000  Level Memphis Center
05:08PM 33.6583 -87.9239 58° Northeast 153 176 7,000  Level Memphis Center
05:10PM 33.6844 -87.8733 58° Northeast 153 176 7,000  Level Memphis Center
05:11PM 33.7064 -87.8278 60° Northeast 154 177 7,000  Level Memphis Center
05:11PM 33.7186 -87.8022 60° Northeast 154 177 7,000  Level Memphis Center
05:14PM 33.7733 -87.6975 58° Northeast 149 171 7,100  Climbing Atlanta Center
05:15PM 33.8019 -87.6486 55° Northeast 151 174 7,100  Level Atlanta Center
05:16PM 33.8217 -87.6094 59° Northeast 151 174 7,100  Level Atlanta Center
05:17PM 33.8439 -87.5628 60° Northeast 153 176 7,100  Level Atlanta Center
05:18PM 33.8661 -87.5211 57° Northeast 149 171 7,100  Level Atlanta Center
05:19PM 33.8836 -87.4869 58° Northeast 147 169 7,100  Level Atlanta Center
05:20PM 33.9081 -87.4428 56° Northeast 148 170 7,100  Level Atlanta Center
05:21PM 33.9322 -87.3961 58° Northeast 151 174 7,100  Level Atlanta Center
05:22PM 33.9542 -87.3519 59° Northeast 153 176 7,100  Level Atlanta Center
05:23PM 33.9761 -87.3103 58° Northeast 152 175 7,100 -60 Level Atlanta Center
05:25PM 34.0044 -87.2398 64° Northeast  Level FlightAware Approximate
05:32PM 34.1264 -86.9488 58° Northeast  Level FlightAware Approximate
05:33PM 34.1465 -86.9096 58° Northeast  Level FlightAware Approximate
05:34PM 34.1667 -86.8704 58° Northeast  Level FlightAware Approximate
05:35PM 34.1869 -86.8312 58° Northeast  Level FlightAware Approximate
05:36PM 34.2070 -86.7919 58° Northeast  Level FlightAware Approximate
05:37PM 34.2271 -86.7527 58° Northeast  Level FlightAware Approximate
05:38PM 34.2472 -86.7134 58° Northeast  Level FlightAware Approximate
05:39PM 34.2673 -86.6741 58° Northeast  Level FlightAware Approximate
05:40PM 34.2874 -86.6348 58° Northeast  Level FlightAware Approximate
05:41PM 34.3075 -86.5954 58° Northeast  Level FlightAware Approximate
05:42PM 34.3275 -86.5561 58° Northeast  Level FlightAware Approximate
05:43PM 34.3476 -86.5167 58° Northeast  Level FlightAware Approximate
05:44PM 34.3676 -86.4773 58° Northeast  Level FlightAware Approximate
05:45PM 34.3876 -86.4379 58° Northeast  Level FlightAware Approximate
05:46PM 34.4076 -86.3984 58° Northeast  Level FlightAware Approximate
05:47PM 34.4276 -86.3590 58° Northeast  Level FlightAware Approximate
05:48PM 34.4476 -86.3195 58° Northeast  Level FlightAware Approximate
05:48PM 34.5203 -86.2019 57° Northeast 160 184 7,000  Level Atlanta Center
05:49PM 34.4676 -86.2800 58° Northeast  Level FlightAware Approximate
05:49PM 34.5419 -86.1622 56° Northeast 166 191 7,000  Level Atlanta Center
05:50PM 34.4875 -86.2405 58° Northeast  Level FlightAware Approximate
05:50PM 34.5636 -86.1147 61° Northeast 161 185 7,000  Level Atlanta Center
05:51PM 34.5075 -86.2010 59° Northeast  Level FlightAware Approximate
05:51PM 34.5872 -86.0725 56° Northeast 156 180 7,000  Level Atlanta Center
05:52PM 34.5274 -86.1614 59° Northeast  Level FlightAware Approximate
05:52PM 34.6108 -86.0275 57° Northeast 156 180 7,000  Level Atlanta Center
05:53PM 34.5473 -86.1218 59° Northeast  Level FlightAware Approximate
05:53PM 34.6344 -85.9878 54° Northeast 156 180 7,000  Level Atlanta Center
05:54PM 34.5672 -86.0823 57° Northeast  Level FlightAware Approximate
05:54PM 34.6561 -85.9453 58° Northeast 151 174 7,000  Level Atlanta Center
05:55PM 34.6775 -85.9028 59° Northeast 146 168 7,000  Level Atlanta Center
05:56PM 34.7011 -85.8631 54° Northeast 146 168 7,000  Level Atlanta Center
05:57PM 34.7206 -85.8228 60° Northeast 140 161 7,000  Level Atlanta Center
05:58PM 34.7378 -85.7828 62° Northeast 140 161 7,000  Level Atlanta Center